sensor_id;sensor_type;location;lat;lon;timestamp;P1;durP1;ratioP1;P2;durP2;ratioP2
7669;SDS011;3877;42.562;27.636;2023-03-17T00:02:14;8.80;;;6.83;;
7669;SDS011;3877;42.562;27.636;2023-03-17T00:04:41;7.67;;;6.70;;
7669;SDS011;3877;42.562;27.636;2023-03-17T00:07:08;11.87;;;7.03;;
7669;SDS011;3877;42.562;27.636;2023-03-17T00:09:36;9.73;;;6.97;;
7669;SDS011;3877;42.562;27.636;2023-03-17T00:12:05;9.20;;;7.00;;
7669;SDS011;3877;42.562;27.636;2023-03-17T00:14:32;8.07;;;5.67;;
7669;SDS011;3877;42.562;27.636;2023-03-17T00:16:59;12.63;;;7.47;;
7669;SDS011;3877;42.562;27.636;2023-03-17T00:19:28;7.03;;;5.33;;
7669;SDS011;3877;42.562;27.636;2023-03-17T00:21:56;8.60;;;6.30;;
7669;SDS011;3877;42.562;27.636;2023-03-17T00:24:23;11.37;;;6.40;;
7669;SDS011;3877;42.562;27.636;2023-03-17T00:26:50;11.07;;;6.63;;
7669;SDS011;3877;42.562;27.636;2023-03-17T00:29:17;9.43;;;6.60;;
7669;SDS011;3877;42.562;27.636;2023-03-17T00:31:44;8.07;;;6.57;;
7669;SDS011;3877;42.562;27.636;2023-03-17T00:34:11;9.33;;;6.27;;
7669;SDS011;3877;42.562;27.636;2023-03-17T00:36:41;10.33;;;6.97;;
7669;SDS011;3877;42.562;27.636;2023-03-17T00:39:10;8.90;;;7.27;;
7669;SDS011;3877;42.562;27.636;2023-03-17T00:41:38;10.13;;;6.83;;
7669;SDS011;3877;42.562;27.636;2023-03-17T00:44:05;9.87;;;6.83;;
7669;SDS011;3877;42.562;27.636;2023-03-17T00:46:32;7.33;;;5.97;;
7669;SDS011;3877;42.562;27.636;2023-03-17T00:49:02;7.97;;;7.10;;
7669;SDS011;3877;42.562;27.636;2023-03-17T00:51:29;10.90;;;7.57;;
7669;SDS011;3877;42.562;27.636;2023-03-17T00:53:57;10.33;;;7.37;;
7669;SDS011;3877;42.562;27.636;2023-03-17T00:56:24;12.87;;;7.63;;
7669;SDS011;3877;42.562;27.636;2023-03-17T00:58:52;9.00;;;6.63;;
7669;SDS011;3877;42.562;27.636;2023-03-17T01:01:19;11.90;;;7.27;;
7669;SDS011;3877;42.562;27.636;2023-03-17T01:03:45;11.10;;;6.13;;
7669;SDS011;3877;42.562;27.636;2023-03-17T01:06:12;9.67;;;6.63;;
7669;SDS011;3877;42.562;27.636;2023-03-17T01:08:40;7.30;;;5.93;;
7669;SDS011;3877;42.562;27.636;2023-03-17T01:11:13;7.33;;;5.63;;
7669;SDS011;3877;42.562;27.636;2023-03-17T01:13:40;10.87;;;6.60;;
7669;SDS011;3877;42.562;27.636;2023-03-17T01:16:08;11.30;;;6.03;;
7669;SDS011;3877;42.562;27.636;2023-03-17T01:18:35;8.87;;;5.93;;
7669;SDS011;3877;42.562;27.636;2023-03-17T01:21:02;8.77;;;6.53;;
7669;SDS011;3877;42.562;27.636;2023-03-17T01:23:29;11.53;;;6.97;;
7669;SDS011;3877;42.562;27.636;2023-03-17T01:25:56;12.03;;;7.13;;
7669;SDS011;3877;42.562;27.636;2023-03-17T01:28:24;8.80;;;7.13;;
7669;SDS011;3877;42.562;27.636;2023-03-17T01:30:51;13.90;;;7.20;;
7669;SDS011;3877;42.562;27.636;2023-03-17T01:33:18;9.60;;;7.50;;
7669;SDS011;3877;42.562;27.636;2023-03-17T01:35:45;8.93;;;6.60;;
7669;SDS011;3877;42.562;27.636;2023-03-17T01:38:12;9.47;;;7.10;;
7669;SDS011;3877;42.562;27.636;2023-03-17T01:40:41;10.77;;;6.90;;
7669;SDS011;3877;42.562;27.636;2023-03-17T01:43:16;8.30;;;5.93;;
7669;SDS011;3877;42.562;27.636;2023-03-17T01:48:30;9.70;;;5.93;;
7669;SDS011;3877;42.562;27.636;2023-03-17T01:51:00;7.80;;;6.30;;
7669;SDS011;3877;42.562;27.636;2023-03-17T01:53:28;7.70;;;5.63;;
7669;SDS011;3877;42.562;27.636;2023-03-17T01:55:55;8.60;;;5.13;;
7669;SDS011;3877;42.562;27.636;2023-03-17T01:58:23;6.43;;;5.47;;
7669;SDS011;3877;42.562;27.636;2023-03-17T02:00:51;10.13;;;6.77;;
7669;SDS011;3877;42.562;27.636;2023-03-17T02:03:18;11.20;;;6.77;;
7669;SDS011;3877;42.562;27.636;2023-03-17T02:05:46;9.27;;;5.93;;
7669;SDS011;3877;42.562;27.636;2023-03-17T02:08:15;7.93;;;6.23;;
7669;SDS011;3877;42.562;27.636;2023-03-17T02:10:43;7.83;;;5.30;;
7669;SDS011;3877;42.562;27.636;2023-03-17T02:13:11;8.23;;;5.90;;
7669;SDS011;3877;42.562;27.636;2023-03-17T02:15:38;9.27;;;6.50;;
7669;SDS011;3877;42.562;27.636;2023-03-17T02:18:06;6.80;;;6.00;;
7669;SDS011;3877;42.562;27.636;2023-03-17T02:23:20;8.40;;;6.53;;
7669;SDS011;3877;42.562;27.636;2023-03-17T02:25:47;7.97;;;5.47;;
7669;SDS011;3877;42.562;27.636;2023-03-17T02:28:15;7.77;;;5.43;;
7669;SDS011;3877;42.562;27.636;2023-03-17T02:30:44;7.37;;;5.77;;
7669;SDS011;3877;42.562;27.636;2023-03-17T02:33:11;9.00;;;6.53;;
7669;SDS011;3877;42.562;27.636;2023-03-17T02:35:38;7.10;;;5.67;;
7669;SDS011;3877;42.562;27.636;2023-03-17T02:38:05;6.83;;;6.00;;
7669;SDS011;3877;42.562;27.636;2023-03-17T02:40:34;7.50;;;4.77;;
7669;SDS011;3877;42.562;27.636;2023-03-17T02:43:01;10.13;;;5.67;;
7669;SDS011;3877;42.562;27.636;2023-03-17T02:45:29;5.90;;;5.30;;
7669;SDS011;3877;42.562;27.636;2023-03-17T02:47:56;7.30;;;5.97;;
7669;SDS011;3877;42.562;27.636;2023-03-17T02:50:24;9.03;;;7.27;;
7669;SDS011;3877;42.562;27.636;2023-03-17T02:52:52;7.27;;;6.23;;
7669;SDS011;3877;42.562;27.636;2023-03-17T02:55:19;10.37;;;7.37;;
7669;SDS011;3877;42.562;27.636;2023-03-17T02:57:47;11.47;;;6.30;;
7669;SDS011;3877;42.562;27.636;2023-03-17T03:00:14;8.60;;;5.87;;
7669;SDS011;3877;42.562;27.636;2023-03-17T03:02:41;9.73;;;6.70;;
7669;SDS011;3877;42.562;27.636;2023-03-17T03:05:08;9.27;;;6.10;;
7669;SDS011;3877;42.562;27.636;2023-03-17T03:07:35;7.90;;;6.50;;
7669;SDS011;3877;42.562;27.636;2023-03-17T03:10:02;7.97;;;5.67;;
7669;SDS011;3877;42.562;27.636;2023-03-17T03:12:29;8.97;;;6.13;;
7669;SDS011;3877;42.562;27.636;2023-03-17T03:14:58;7.50;;;6.40;;
7669;SDS011;3877;42.562;27.636;2023-03-17T03:17:25;10.33;;;5.40;;
7669;SDS011;3877;42.562;27.636;2023-03-17T03:19:52;6.80;;;5.00;;
7669;SDS011;3877;42.562;27.636;2023-03-17T03:22:19;12.53;;;6.13;;
7669;SDS011;3877;42.562;27.636;2023-03-17T03:24:46;9.60;;;6.30;;
7669;SDS011;3877;42.562;27.636;2023-03-17T03:27:13;7.47;;;6.27;;
7669;SDS011;3877;42.562;27.636;2023-03-17T03:29:42;8.10;;;5.83;;
7669;SDS011;3877;42.562;27.636;2023-03-17T03:32:11;8.03;;;6.80;;
7669;SDS011;3877;42.562;27.636;2023-03-17T03:34:37;10.60;;;5.83;;
7669;SDS011;3877;42.562;27.636;2023-03-17T03:37:04;8.07;;;5.67;;
7669;SDS011;3877;42.562;27.636;2023-03-17T03:39:32;8.77;;;6.00;;
7669;SDS011;3877;42.562;27.636;2023-03-17T03:41:59;6.43;;;5.40;;
7669;SDS011;3877;42.562;27.636;2023-03-17T03:44:26;10.13;;;5.50;;
7669;SDS011;3877;42.562;27.636;2023-03-17T03:46:52;7.37;;;4.80;;
7669;SDS011;3877;42.562;27.636;2023-03-17T03:49:20;7.07;;;4.87;;
7669;SDS011;3877;42.562;27.636;2023-03-17T03:51:48;6.17;;;4.53;;
7669;SDS011;3877;42.562;27.636;2023-03-17T03:54:15;5.97;;;4.20;;
7669;SDS011;3877;42.562;27.636;2023-03-17T03:56:41;10.57;;;5.40;;
7669;SDS011;3877;42.562;27.636;2023-03-17T03:59:08;6.60;;;4.20;;
7669;SDS011;3877;42.562;27.636;2023-03-17T04:01:35;5.97;;;4.50;;
7669;SDS011;3877;42.562;27.636;2023-03-17T04:04:03;5.00;;;4.10;;
7669;SDS011;3877;42.562;27.636;2023-03-17T04:06:31;6.33;;;5.03;;
7669;SDS011;3877;42.562;27.636;2023-03-17T04:08:58;8.17;;;4.87;;
7669;SDS011;3877;42.562;27.636;2023-03-17T04:11:25;6.53;;;4.80;;
7669;SDS011;3877;42.562;27.636;2023-03-17T04:13:52;6.23;;;4.27;;
7669;SDS011;3877;42.562;27.636;2023-03-17T04:16:18;8.83;;;5.17;;
7669;SDS011;3877;42.562;27.636;2023-03-17T04:18:45;10.07;;;4.90;;
7669;SDS011;3877;42.562;27.636;2023-03-17T04:21:12;7.47;;;5.40;;
7669;SDS011;3877;42.562;27.636;2023-03-17T04:23:44;7.27;;;4.50;;
7669;SDS011;3877;42.562;27.636;2023-03-17T04:26:11;10.60;;;5.47;;
7669;SDS011;3877;42.562;27.636;2023-03-17T04:28:39;8.27;;;4.93;;
7669;SDS011;3877;42.562;27.636;2023-03-17T04:31:07;7.10;;;4.07;;
7669;SDS011;3877;42.562;27.636;2023-03-17T04:33:34;11.50;;;5.13;;
7669;SDS011;3877;42.562;27.636;2023-03-17T04:36:00;5.73;;;3.80;;
7669;SDS011;3877;42.562;27.636;2023-03-17T04:38:28;8.27;;;4.20;;
7669;SDS011;3877;42.562;27.636;2023-03-17T04:40:56;6.50;;;4.03;;
7669;SDS011;3877;42.562;27.636;2023-03-17T04:43:23;10.07;;;4.27;;
7669;SDS011;3877;42.562;27.636;2023-03-17T04:45:51;8.10;;;4.60;;
7669;SDS011;3877;42.562;27.636;2023-03-17T04:48:18;7.23;;;4.43;;
7669;SDS011;3877;42.562;27.636;2023-03-17T04:50:45;8.60;;;4.50;;
7669;SDS011;3877;42.562;27.636;2023-03-17T04:53:13;5.50;;;3.77;;
7669;SDS011;3877;42.562;27.636;2023-03-17T04:55:39;9.93;;;4.67;;
7669;SDS011;3877;42.562;27.636;2023-03-17T04:58:07;14.10;;;4.90;;
7669;SDS011;3877;42.562;27.636;2023-03-17T05:00:34;9.10;;;4.80;;
7669;SDS011;3877;42.562;27.636;2023-03-17T05:03:03;7.97;;;4.47;;
7669;SDS011;3877;42.562;27.636;2023-03-17T05:05:30;10.53;;;4.00;;
7669;SDS011;3877;42.562;27.636;2023-03-17T05:07:57;6.83;;;3.77;;
7669;SDS011;3877;42.562;27.636;2023-03-17T05:10:24;5.77;;;3.77;;
7669;SDS011;3877;42.562;27.636;2023-03-17T05:12:51;7.47;;;3.70;;
7669;SDS011;3877;42.562;27.636;2023-03-17T05:15:19;5.47;;;4.60;;
7669;SDS011;3877;42.562;27.636;2023-03-17T05:17:46;6.17;;;3.50;;
7669;SDS011;3877;42.562;27.636;2023-03-17T05:20:13;6.27;;;4.20;;
7669;SDS011;3877;42.562;27.636;2023-03-17T05:22:39;7.03;;;3.70;;
7669;SDS011;3877;42.562;27.636;2023-03-17T05:25:06;8.77;;;3.80;;
7669;SDS011;3877;42.562;27.636;2023-03-17T05:27:33;6.47;;;3.83;;
7669;SDS011;3877;42.562;27.636;2023-03-17T05:30:00;6.17;;;3.57;;
7669;SDS011;3877;42.562;27.636;2023-03-17T05:32:29;4.90;;;3.67;;
7669;SDS011;3877;42.562;27.636;2023-03-17T05:34:56;8.40;;;3.73;;
7669;SDS011;3877;42.562;27.636;2023-03-17T05:37:23;6.30;;;3.67;;
7669;SDS011;3877;42.562;27.636;2023-03-17T05:39:50;8.17;;;3.60;;
7669;SDS011;3877;42.562;27.636;2023-03-17T05:42:18;7.83;;;4.20;;
7669;SDS011;3877;42.562;27.636;2023-03-17T05:44:45;4.80;;;3.93;;
7669;SDS011;3877;42.562;27.636;2023-03-17T05:47:12;5.07;;;3.27;;
7669;SDS011;3877;42.562;27.636;2023-03-17T05:49:40;5.00;;;3.27;;
7669;SDS011;3877;42.562;27.636;2023-03-17T05:52:07;5.87;;;3.20;;
7669;SDS011;3877;42.562;27.636;2023-03-17T05:54:34;7.90;;;3.93;;
7669;SDS011;3877;42.562;27.636;2023-03-17T05:57:01;7.13;;;3.97;;
7669;SDS011;3877;42.562;27.636;2023-03-17T05:59:28;6.53;;;3.50;;
7669;SDS011;3877;42.562;27.636;2023-03-17T06:01:55;5.83;;;2.87;;
7669;SDS011;3877;42.562;27.636;2023-03-17T06:04:22;9.43;;;3.63;;
7669;SDS011;3877;42.562;27.636;2023-03-17T06:06:51;10.83;;;3.40;;
7669;SDS011;3877;42.562;27.636;2023-03-17T06:09:19;4.93;;;2.80;;
7669;SDS011;3877;42.562;27.636;2023-03-17T06:11:46;4.57;;;2.93;;
7669;SDS011;3877;42.562;27.636;2023-03-17T06:14:13;6.50;;;3.37;;
7669;SDS011;3877;42.562;27.636;2023-03-17T06:16:41;5.97;;;3.00;;
7669;SDS011;3877;42.562;27.636;2023-03-17T06:19:11;5.23;;;3.37;;
7669;SDS011;3877;42.562;27.636;2023-03-17T06:21:38;6.17;;;3.10;;
7669;SDS011;3877;42.562;27.636;2023-03-17T06:24:07;4.47;;;2.60;;
7669;SDS011;3877;42.562;27.636;2023-03-17T06:26:34;7.23;;;2.73;;
7669;SDS011;3877;42.562;27.636;2023-03-17T06:29:01;6.33;;;3.43;;
7669;SDS011;3877;42.562;27.636;2023-03-17T06:31:28;7.03;;;3.00;;
7669;SDS011;3877;42.562;27.636;2023-03-17T06:33:55;4.77;;;3.03;;
7669;SDS011;3877;42.562;27.636;2023-03-17T06:36:22;6.23;;;3.20;;
7669;SDS011;3877;42.562;27.636;2023-03-17T06:38:49;6.73;;;3.00;;
7669;SDS011;3877;42.562;27.636;2023-03-17T06:41:18;5.83;;;3.30;;
7669;SDS011;3877;42.562;27.636;2023-03-17T06:43:45;5.33;;;2.90;;
7669;SDS011;3877;42.562;27.636;2023-03-17T06:46:12;6.47;;;3.57;;
7669;SDS011;3877;42.562;27.636;2023-03-17T06:48:38;6.23;;;3.60;;
7669;SDS011;3877;42.562;27.636;2023-03-17T06:51:05;6.10;;;2.87;;
7669;SDS011;3877;42.562;27.636;2023-03-17T06:53:32;10.33;;;3.40;;
7669;SDS011;3877;42.562;27.636;2023-03-17T06:55:59;5.83;;;3.00;;
7669;SDS011;3877;42.562;27.636;2023-03-17T06:58:27;6.80;;;3.50;;
7669;SDS011;3877;42.562;27.636;2023-03-17T07:00:54;6.57;;;2.90;;
7669;SDS011;3877;42.562;27.636;2023-03-17T07:03:21;5.13;;;2.73;;
7669;SDS011;3877;42.562;27.636;2023-03-17T07:05:49;3.87;;;2.80;;
7669;SDS011;3877;42.562;27.636;2023-03-17T07:08:16;5.90;;;2.63;;
7669;SDS011;3877;42.562;27.636;2023-03-17T07:10:43;5.33;;;3.10;;
7669;SDS011;3877;42.562;27.636;2023-03-17T07:13:10;11.07;;;3.23;;
7669;SDS011;3877;42.562;27.636;2023-03-17T07:15:39;7.70;;;3.30;;
7669;SDS011;3877;42.562;27.636;2023-03-17T07:18:07;4.80;;;2.90;;
7669;SDS011;3877;42.562;27.636;2023-03-17T07:20:33;8.67;;;2.80;;
7669;SDS011;3877;42.562;27.636;2023-03-17T07:23:00;6.50;;;3.27;;
7669;SDS011;3877;42.562;27.636;2023-03-17T07:25:27;8.03;;;3.40;;
7669;SDS011;3877;42.562;27.636;2023-03-17T07:27:54;7.57;;;2.90;;
7669;SDS011;3877;42.562;27.636;2023-03-17T07:30:20;5.33;;;3.03;;
7669;SDS011;3877;42.562;27.636;2023-03-17T07:32:49;5.63;;;3.00;;
7669;SDS011;3877;42.562;27.636;2023-03-17T07:35:15;6.97;;;2.60;;
7669;SDS011;3877;42.562;27.636;2023-03-17T07:37:43;6.87;;;3.00;;
7669;SDS011;3877;42.562;27.636;2023-03-17T07:40:11;6.93;;;3.00;;
7669;SDS011;3877;42.562;27.636;2023-03-17T07:42:38;5.83;;;2.90;;
7669;SDS011;3877;42.562;27.636;2023-03-17T07:45:06;8.23;;;2.90;;
7669;SDS011;3877;42.562;27.636;2023-03-17T07:47:34;5.10;;;2.77;;
7669;SDS011;3877;42.562;27.636;2023-03-17T07:50:02;5.70;;;2.90;;
7669;SDS011;3877;42.562;27.636;2023-03-17T07:52:29;4.17;;;2.57;;
7669;SDS011;3877;42.562;27.636;2023-03-17T07:54:56;4.10;;;2.97;;
7669;SDS011;3877;42.562;27.636;2023-03-17T07:57:23;7.40;;;3.70;;
7669;SDS011;3877;42.562;27.636;2023-03-17T07:59:49;5.23;;;2.93;;
7669;SDS011;3877;42.562;27.636;2023-03-17T08:02:16;5.90;;;2.70;;
7669;SDS011;3877;42.562;27.636;2023-03-17T08:04:44;5.83;;;2.90;;
7669;SDS011;3877;42.562;27.636;2023-03-17T08:07:12;10.43;;;2.70;;
7669;SDS011;3877;42.562;27.636;2023-03-17T08:09:39;5.93;;;2.73;;
7669;SDS011;3877;42.562;27.636;2023-03-17T08:12:07;4.77;;;2.37;;
7669;SDS011;3877;42.562;27.636;2023-03-17T08:14:34;9.50;;;3.03;;
7669;SDS011;3877;42.562;27.636;2023-03-17T08:17:01;5.40;;;2.77;;
7669;SDS011;3877;42.562;27.636;2023-03-17T08:19:29;7.27;;;2.23;;
7669;SDS011;3877;42.562;27.636;2023-03-17T08:21:55;9.70;;;2.90;;
7669;SDS011;3877;42.562;27.636;2023-03-17T08:24:23;5.67;;;2.20;;
7669;SDS011;3877;42.562;27.636;2023-03-17T08:26:51;6.67;;;2.50;;
7669;SDS011;3877;42.562;27.636;2023-03-17T08:29:18;7.93;;;2.50;;
7669;SDS011;3877;42.562;27.636;2023-03-17T08:31:45;7.40;;;2.87;;
7669;SDS011;3877;42.562;27.636;2023-03-17T08:34:12;5.30;;;2.40;;
7669;SDS011;3877;42.562;27.636;2023-03-17T08:36:40;7.47;;;2.73;;
7669;SDS011;3877;42.562;27.636;2023-03-17T08:39:07;4.83;;;2.53;;
7669;SDS011;3877;42.562;27.636;2023-03-17T08:41:36;4.53;;;2.17;;
7669;SDS011;3877;42.562;27.636;2023-03-17T08:44:03;6.87;;;2.17;;
7669;SDS011;3877;42.562;27.636;2023-03-17T08:46:30;8.43;;;2.33;;
7669;SDS011;3877;42.562;27.636;2023-03-17T08:48:58;5.07;;;2.63;;
7669;SDS011;3877;42.562;27.636;2023-03-17T08:51:26;4.03;;;2.23;;
7669;SDS011;3877;42.562;27.636;2023-03-17T08:53:53;3.63;;;1.90;;
7669;SDS011;3877;42.562;27.636;2023-03-17T08:56:20;4.27;;;2.23;;
7669;SDS011;3877;42.562;27.636;2023-03-17T08:58:49;4.63;;;2.30;;
7669;SDS011;3877;42.562;27.636;2023-03-17T09:01:16;3.07;;;2.23;;
7669;SDS011;3877;42.562;27.636;2023-03-17T09:03:43;4.90;;;2.00;;
7669;SDS011;3877;42.562;27.636;2023-03-17T09:06:10;5.27;;;2.23;;
7669;SDS011;3877;42.562;27.636;2023-03-17T09:08:37;5.20;;;2.40;;
7669;SDS011;3877;42.562;27.636;2023-03-17T09:11:04;4.37;;;2.13;;
7669;SDS011;3877;42.562;27.636;2023-03-17T09:13:31;2.20;;;1.93;;
7669;SDS011;3877;42.562;27.636;2023-03-17T09:16:00;6.37;;;2.30;;
7669;SDS011;3877;42.562;27.636;2023-03-17T09:18:26;3.80;;;1.90;;
7669;SDS011;3877;42.562;27.636;2023-03-17T09:20:55;4.23;;;2.20;;
7669;SDS011;3877;42.562;27.636;2023-03-17T09:23:22;6.17;;;2.33;;
7669;SDS011;3877;42.562;27.636;2023-03-17T09:25:49;3.90;;;2.17;;
7669;SDS011;3877;42.562;27.636;2023-03-17T09:28:17;3.33;;;2.30;;
7669;SDS011;3877;42.562;27.636;2023-03-17T09:30:44;8.73;;;2.80;;
7669;SDS011;3877;42.562;27.636;2023-03-17T09:33:13;5.57;;;1.87;;
7669;SDS011;3877;42.562;27.636;2023-03-17T09:35:40;4.63;;;2.40;;
7669;SDS011;3877;42.562;27.636;2023-03-17T09:38:07;5.00;;;1.80;;
7669;SDS011;3877;42.562;27.636;2023-03-17T09:40:35;5.80;;;2.23;;
7669;SDS011;3877;42.562;27.636;2023-03-17T09:43:05;6.23;;;2.07;;
7669;SDS011;3877;42.562;27.636;2023-03-17T09:45:33;2.63;;;1.97;;
7669;SDS011;3877;42.562;27.636;2023-03-17T09:48:11;2.77;;;1.97;;
7669;SDS011;3877;42.562;27.636;2023-03-17T09:50:44;4.33;;;2.10;;
7669;SDS011;3877;42.562;27.636;2023-03-17T09:53:14;2.10;;;1.60;;
7669;SDS011;3877;42.562;27.636;2023-03-17T09:55:42;2.50;;;1.80;;
7669;SDS011;3877;42.562;27.636;2023-03-17T09:58:09;4.23;;;2.20;;
7669;SDS011;3877;42.562;27.636;2023-03-17T10:00:37;6.10;;;2.17;;
7669;SDS011;3877;42.562;27.636;2023-03-17T10:03:05;8.43;;;2.20;;
7669;SDS011;3877;42.562;27.636;2023-03-17T10:05:33;11.70;;;2.60;;
7669;SDS011;3877;42.562;27.636;2023-03-17T10:08:03;6.80;;;1.73;;
7669;SDS011;3877;42.562;27.636;2023-03-17T10:10:34;5.20;;;2.10;;
7669;SDS011;3877;42.562;27.636;2023-03-17T10:13:05;7.40;;;2.17;;
7669;SDS011;3877;42.562;27.636;2023-03-17T10:15:36;5.40;;;2.00;;
7669;SDS011;3877;42.562;27.636;2023-03-17T10:18:08;8.47;;;2.13;;
7669;SDS011;3877;42.562;27.636;2023-03-17T10:20:41;5.03;;;2.00;;
7669;SDS011;3877;42.562;27.636;2023-03-17T10:23:12;5.73;;;1.73;;
7669;SDS011;3877;42.562;27.636;2023-03-17T10:25:40;3.03;;;1.87;;
7669;SDS011;3877;42.562;27.636;2023-03-17T10:28:10;4.10;;;1.80;;
7669;SDS011;3877;42.562;27.636;2023-03-17T10:30:41;3.57;;;1.70;;
7669;SDS011;3877;42.562;27.636;2023-03-17T10:33:09;3.03;;;1.50;;
7669;SDS011;3877;42.562;27.636;2023-03-17T10:35:36;2.23;;;1.60;;
7669;SDS011;3877;42.562;27.636;2023-03-17T10:38:12;4.00;;;1.77;;
7669;SDS011;3877;42.562;27.636;2023-03-17T10:40:40;4.87;;;2.00;;
7669;SDS011;3877;42.562;27.636;2023-03-17T10:43:12;3.57;;;2.00;;
7669;SDS011;3877;42.562;27.636;2023-03-17T10:45:46;5.43;;;2.07;;
7669;SDS011;3877;42.562;27.636;2023-03-17T10:48:15;5.20;;;1.80;;
7669;SDS011;3877;42.562;27.636;2023-03-17T10:50:43;5.33;;;2.00;;
7669;SDS011;3877;42.562;27.636;2023-03-17T10:53:18;5.43;;;2.30;;
7669;SDS011;3877;42.562;27.636;2023-03-17T10:55:52;12.30;;;2.30;;
7669;SDS011;3877;42.562;27.636;2023-03-17T10:58:20;5.87;;;2.00;;
7669;SDS011;3877;42.562;27.636;2023-03-17T11:00:53;6.73;;;2.10;;
7669;SDS011;3877;42.562;27.636;2023-03-17T11:03:21;5.37;;;1.80;;
7669;SDS011;3877;42.562;27.636;2023-03-17T11:05:53;5.43;;;2.20;;
7669;SDS011;3877;42.562;27.636;2023-03-17T11:08:23;6.33;;;1.90;;
7669;SDS011;3877;42.562;27.636;2023-03-17T11:10:52;7.27;;;1.90;;
7669;SDS011;3877;42.562;27.636;2023-03-17T11:13:19;3.23;;;1.70;;
7669;SDS011;3877;42.562;27.636;2023-03-17T11:15:47;2.83;;;1.53;;
7669;SDS011;3877;42.562;27.636;2023-03-17T11:18:16;2.70;;;1.77;;
7669;SDS011;3877;42.562;27.636;2023-03-17T11:20:45;3.67;;;1.83;;
7669;SDS011;3877;42.562;27.636;2023-03-17T11:23:19;4.57;;;2.03;;
7669;SDS011;3877;42.562;27.636;2023-03-17T11:25:51;6.90;;;2.03;;
7669;SDS011;3877;42.562;27.636;2023-03-17T11:28:20;1.90;;;1.60;;
7669;SDS011;3877;42.562;27.636;2023-03-17T11:30:50;4.57;;;2.30;;
7669;SDS011;3877;42.562;27.636;2023-03-17T11:33:25;5.57;;;2.10;;
7669;SDS011;3877;42.562;27.636;2023-03-17T11:35:54;6.40;;;2.30;;
7669;SDS011;3877;42.562;27.636;2023-03-17T11:38:23;4.57;;;1.83;;
7669;SDS011;3877;42.562;27.636;2023-03-17T11:41:05;3.67;;;2.07;;
7669;SDS011;3877;42.562;27.636;2023-03-17T11:43:36;3.60;;;2.07;;
7669;SDS011;3877;42.562;27.636;2023-03-17T11:46:08;3.97;;;2.20;;
7669;SDS011;3877;42.562;27.636;2023-03-17T11:48:39;4.37;;;1.93;;
7669;SDS011;3877;42.562;27.636;2023-03-17T11:51:12;6.63;;;2.27;;
7669;SDS011;3877;42.562;27.636;2023-03-17T11:53:48;3.00;;;1.90;;
7669;SDS011;3877;42.562;27.636;2023-03-17T11:56:18;6.03;;;2.17;;
7669;SDS011;3877;42.562;27.636;2023-03-17T11:58:46;6.30;;;2.27;;
7669;SDS011;3877;42.562;27.636;2023-03-17T12:01:16;4.13;;;1.80;;
7669;SDS011;3877;42.562;27.636;2023-03-17T12:03:46;3.43;;;2.27;;
7669;SDS011;3877;42.562;27.636;2023-03-17T12:06:15;7.33;;;1.90;;
7669;SDS011;3877;42.562;27.636;2023-03-17T12:08:45;6.37;;;2.07;;
7669;SDS011;3877;42.562;27.636;2023-03-17T12:11:15;5.60;;;2.47;;
7669;SDS011;3877;42.562;27.636;2023-03-17T12:13:45;5.93;;;2.10;;
7669;SDS011;3877;42.562;27.636;2023-03-17T12:16:14;6.53;;;2.07;;
7669;SDS011;3877;42.562;27.636;2023-03-17T12:18:44;7.67;;;2.30;;
7669;SDS011;3877;42.562;27.636;2023-03-17T12:21:15;5.53;;;1.97;;
7669;SDS011;3877;42.562;27.636;2023-03-17T12:23:47;7.53;;;2.43;;
7669;SDS011;3877;42.562;27.636;2023-03-17T12:26:15;5.30;;;2.37;;
7669;SDS011;3877;42.562;27.636;2023-03-17T12:28:45;2.90;;;1.93;;
7669;SDS011;3877;42.562;27.636;2023-03-17T12:31:15;5.60;;;2.10;;
7669;SDS011;3877;42.562;27.636;2023-03-17T12:33:44;5.23;;;1.83;;
7669;SDS011;3877;42.562;27.636;2023-03-17T12:36:14;7.80;;;2.30;;
7669;SDS011;3877;42.562;27.636;2023-03-17T12:38:42;5.43;;;2.07;;
7669;SDS011;3877;42.562;27.636;2023-03-17T12:41:22;4.67;;;1.77;;
7669;SDS011;3877;42.562;27.636;2023-03-17T12:44:04;5.23;;;2.30;;
7669;SDS011;3877;42.562;27.636;2023-03-17T12:49:26;3.40;;;2.00;;
7669;SDS011;3877;42.562;27.636;2023-03-17T12:52:00;3.47;;;1.70;;
7669;SDS011;3877;42.562;27.636;2023-03-17T12:54:30;7.13;;;2.03;;
7669;SDS011;3877;42.562;27.636;2023-03-17T12:56:59;5.33;;;2.03;;
7669;SDS011;3877;42.562;27.636;2023-03-17T12:59:29;7.27;;;2.17;;
7669;SDS011;3877;42.562;27.636;2023-03-17T13:02:04;5.13;;;2.17;;
7669;SDS011;3877;42.562;27.636;2023-03-17T13:04:35;5.77;;;2.47;;
7669;SDS011;3877;42.562;27.636;2023-03-17T13:07:03;7.63;;;2.13;;
7669;SDS011;3877;42.562;27.636;2023-03-17T13:09:33;6.03;;;2.90;;
7669;SDS011;3877;42.562;27.636;2023-03-17T13:12:01;2.33;;;1.90;;
7669;SDS011;3877;42.562;27.636;2023-03-17T13:14:38;3.33;;;1.90;;
7669;SDS011;3877;42.562;27.636;2023-03-17T13:17:28;5.77;;;2.00;;
7669;SDS011;3877;42.562;27.636;2023-03-17T13:19:56;5.83;;;2.10;;
7669;SDS011;3877;42.562;27.636;2023-03-17T13:22:32;5.10;;;1.80;;
7669;SDS011;3877;42.562;27.636;2023-03-17T13:27:48;4.80;;;2.40;;
7669;SDS011;3877;42.562;27.636;2023-03-17T13:33:02;4.33;;;1.73;;
7669;SDS011;3877;42.562;27.636;2023-03-17T13:35:45;5.83;;;2.50;;
7669;SDS011;3877;42.562;27.636;2023-03-17T13:41:04;6.37;;;2.73;;
7669;SDS011;3877;42.562;27.636;2023-03-17T13:43:37;4.57;;;2.00;;
7669;SDS011;3877;42.562;27.636;2023-03-17T13:48:53;4.53;;;2.20;;
7669;SDS011;3877;42.562;27.636;2023-03-17T13:51:21;4.47;;;2.30;;
7669;SDS011;3877;42.562;27.636;2023-03-17T13:53:50;3.37;;;1.93;;
7669;SDS011;3877;42.562;27.636;2023-03-17T13:56:20;5.77;;;2.50;;
7669;SDS011;3877;42.562;27.636;2023-03-17T13:59:03;4.00;;;2.03;;
7669;SDS011;3877;42.562;27.636;2023-03-17T14:01:33;9.53;;;2.70;;
7669;SDS011;3877;42.562;27.636;2023-03-17T14:04:05;5.87;;;2.50;;
7669;SDS011;3877;42.562;27.636;2023-03-17T14:06:34;5.13;;;2.13;;
7669;SDS011;3877;42.562;27.636;2023-03-17T14:09:06;5.10;;;2.10;;
7669;SDS011;3877;42.562;27.636;2023-03-17T14:11:34;10.37;;;2.40;;
7669;SDS011;3877;42.562;27.636;2023-03-17T14:14:07;7.13;;;2.30;;
7669;SDS011;3877;42.562;27.636;2023-03-17T14:16:36;6.47;;;2.97;;
7669;SDS011;3877;42.562;27.636;2023-03-17T14:19:10;6.80;;;2.40;;
7669;SDS011;3877;42.562;27.636;2023-03-17T14:21:42;4.53;;;2.40;;
7669;SDS011;3877;42.562;27.636;2023-03-17T14:24:20;5.50;;;1.87;;
7669;SDS011;3877;42.562;27.636;2023-03-17T14:26:48;5.43;;;2.00;;
7669;SDS011;3877;42.562;27.636;2023-03-17T14:29:15;4.40;;;2.10;;
7669;SDS011;3877;42.562;27.636;2023-03-17T14:31:45;7.67;;;2.20;;
7669;SDS011;3877;42.562;27.636;2023-03-17T14:34:14;5.50;;;1.80;;
7669;SDS011;3877;42.562;27.636;2023-03-17T14:36:41;3.97;;;2.10;;
7669;SDS011;3877;42.562;27.636;2023-03-17T14:39:17;5.30;;;2.00;;
7669;SDS011;3877;42.562;27.636;2023-03-17T14:41:46;4.63;;;2.07;;
7669;SDS011;3877;42.562;27.636;2023-03-17T14:44:21;5.93;;;2.10;;
7669;SDS011;3877;42.562;27.636;2023-03-17T14:46:48;4.53;;;2.10;;
7669;SDS011;3877;42.562;27.636;2023-03-17T14:49:17;6.10;;;2.13;;
7669;SDS011;3877;42.562;27.636;2023-03-17T14:51:44;8.60;;;2.20;;
7669;SDS011;3877;42.562;27.636;2023-03-17T14:54:14;5.53;;;1.97;;
7669;SDS011;3877;42.562;27.636;2023-03-17T14:56:45;9.07;;;2.17;;
7669;SDS011;3877;42.562;27.636;2023-03-17T14:59:16;4.27;;;2.07;;
7669;SDS011;3877;42.562;27.636;2023-03-17T15:01:44;4.67;;;2.03;;
7669;SDS011;3877;42.562;27.636;2023-03-17T15:04:12;4.33;;;2.27;;
7669;SDS011;3877;42.562;27.636;2023-03-17T15:06:47;11.93;;;2.40;;
7669;SDS011;3877;42.562;27.636;2023-03-17T15:09:16;5.00;;;2.10;;
7669;SDS011;3877;42.562;27.636;2023-03-17T15:11:43;2.27;;;1.67;;
7669;SDS011;3877;42.562;27.636;2023-03-17T15:14:14;4.47;;;2.00;;
7669;SDS011;3877;42.562;27.636;2023-03-17T15:16:42;5.03;;;2.07;;
7669;SDS011;3877;42.562;27.636;2023-03-17T15:19:16;7.27;;;2.23;;
7669;SDS011;3877;42.562;27.636;2023-03-17T15:21:43;4.87;;;2.23;;
7669;SDS011;3877;42.562;27.636;2023-03-17T15:24:26;6.37;;;2.50;;
7669;SDS011;3877;42.562;27.636;2023-03-17T15:27:03;4.40;;;1.90;;
7669;SDS011;3877;42.562;27.636;2023-03-17T15:29:30;3.63;;;2.07;;